createdAt,value
2023-03-21T00:00:30.082Z,98.10
2023-03-21T00:02:57.229Z,107.88
2023-03-21T00:05:24.312Z,103.43
2023-03-21T00:07:52.139Z,103.00
2023-03-21T00:10:29.729Z,107.93
2023-03-21T00:13:05.784Z,108.95
2023-03-21T00:18:23.431Z,96.85
2023-03-21T00:21:29.381Z,101.03
2023-03-21T00:23:47.197Z,92.95
2023-03-21T00:26:15.209Z,100.30
2023-03-21T00:28:42.987Z,97.43
2023-03-21T00:31:10.358Z,107.03
2023-03-21T00:33:39.230Z,103.15
2023-03-21T00:36:07.323Z,94.35
2023-03-21T00:38:35.206Z,84.85
2023-03-21T00:41:18.803Z,74.63
2023-03-21T00:43:52.185Z,67.10
2023-03-21T00:46:21.697Z,65.65
2023-03-21T00:48:48.928Z,65.35
2023-03-21T00:51:21.735Z,64.93
2023-03-21T00:53:48.568Z,60.20
2023-03-21T00:56:15.414Z,59.97
2023-03-21T00:58:42.308Z,74.07
2023-03-21T01:01:09.564Z,77.68
2023-03-21T01:03:42.856Z,73.30
2023-03-21T01:06:13.604Z,71.85
2023-03-21T01:08:51.842Z,80.30
2023-03-21T01:11:21.815Z,83.40
2023-03-21T01:13:54.752Z,83.43
2023-03-21T01:16:26.685Z,92.72
2023-03-21T01:18:53.533Z,98.38
2023-03-21T01:21:20.415Z,86.43
2023-03-21T01:23:47.646Z,86.97
2023-03-21T01:26:15.483Z,84.47
2023-03-21T01:28:45.422Z,85.07
2023-03-21T01:31:13.628Z,90.63
2023-03-21T01:33:40.996Z,87.57
2023-03-21T01:36:13.136Z,89.28
2023-03-21T01:38:43.602Z,84.13
2023-03-21T01:41:42.081Z,90.70
2023-03-21T01:44:18.073Z,84.65
2023-03-21T01:47:00.387Z,84.75
2023-03-21T01:49:49.800Z,87.72
2023-03-21T01:52:37.573Z,94.68
2023-03-21T01:55:12.741Z,83.85
2023-03-21T01:58:06.646Z,92.22
2023-03-21T02:00:44.982Z,87.32
2023-03-21T02:03:35.928Z,92.57
2023-03-21T02:06:31.762Z,86.70
2023-03-21T02:09:09.013Z,83.82
2023-03-21T02:11:36.484Z,80.50
2023-03-21T02:14:06.994Z,77.68
2023-03-21T02:16:48.630Z,95.53
2023-03-21T02:19:20.080Z,78.57
2023-03-21T02:21:50.304Z,75.18
2023-03-21T02:24:32.638Z,75.82
2023-03-21T02:27:04.990Z,72.75
2023-03-21T02:29:53.645Z,77.82
2023-03-21T02:32:36.967Z,77.75
2023-03-21T02:35:24.356Z,89.07
2023-03-21T02:37:58.564Z,89.20
2023-03-21T02:40:39.958Z,84.25
2023-03-21T02:43:22.912Z,86.40
2023-03-21T02:45:51.107Z,87.30
2023-03-21T02:48:50.238Z,82.63
2023-03-21T02:51:19.805Z,90.82
2023-03-21T02:53:53.273Z,87.93
2023-03-21T02:56:27.531Z,82.05
2023-03-21T02:58:56.219Z,84.07
2023-03-21T03:01:26.217Z,77.88
2023-03-21T03:03:54.018Z,81.63
2023-03-21T03:06:44.346Z,82.32
2023-03-21T03:09:21.044Z,81.00
2023-03-21T03:11:51.251Z,80.55
2023-03-21T03:14:59.876Z,85.20
2023-03-21T03:17:20.447Z,79.32
2023-03-21T03:19:50.651Z,75.33
2023-03-21T03:22:27.781Z,71.78
2023-03-21T03:25:04.862Z,70.70
2023-03-21T03:27:43.385Z,71.18
2023-03-21T03:30:11.064Z,66.75
2023-03-21T03:32:44.873Z,67.38
2023-03-21T03:35:13.767Z,66.95
2023-03-21T03:37:41.965Z,72.93
2023-03-21T03:40:11.498Z,52.72
2023-03-21T03:42:42.531Z,66.25
2023-03-21T03:45:23.068Z,54.47
2023-03-21T03:48:07.176Z,57.03
2023-03-21T03:50:40.637Z,79.38
2023-03-21T03:53:20.487Z,73.95
2023-03-21T03:55:51.017Z,86.97
2023-03-21T03:58:24.830Z,83.78
2023-03-21T04:00:56.148Z,87.50
2023-03-21T04:03:24.144Z,81.07
2023-03-21T04:05:52.173Z,70.75
2023-03-21T04:08:19.171Z,68.53
2023-03-21T04:10:51.865Z,76.75
2023-03-21T04:13:19.329Z,72.57
2023-03-21T04:16:07.746Z,85.47
2023-03-21T04:18:34.904Z,85.45
2023-03-21T04:21:02.109Z,67.18
2023-03-21T04:23:30.252Z,77.60
2023-03-21T04:25:57.545Z,105.22
2023-03-21T04:28:37.408Z,95.43
2023-03-21T04:31:28.604Z,85.95
2023-03-21T04:34:10.044Z,83.32
2023-03-21T04:36:43.091Z,97.10
2023-03-21T04:39:12.709Z,115.07
2023-03-21T04:41:40.972Z,110.03
2023-03-21T04:44:08.532Z,120.07
2023-03-21T04:46:36.833Z,101.43
2023-03-21T04:49:04.188Z,102.53
2023-03-21T04:51:31.011Z,105.03
2023-03-21T04:53:58.142Z,83.43
2023-03-21T04:56:30.659Z,96.18
2023-03-21T04:58:58.848Z,110.68
2023-03-21T05:01:30.793Z,99.18
2023-03-21T05:04:02.250Z,81.45
2023-03-21T05:09:01.699Z,80.63
2023-03-21T05:11:33.046Z,114.32
2023-03-21T05:13:59.804Z,112.75
2023-03-21T05:16:30.564Z,108.90
2023-03-21T05:18:59.109Z,93.15
2023-03-21T05:21:30.005Z,94.20
2023-03-21T05:23:58.541Z,119.07
2023-03-21T05:26:25.807Z,111.88
2023-03-21T05:29:00.123Z,108.72
2023-03-21T05:31:27.056Z,126.93
2023-03-21T05:34:04.755Z,113.43
2023-03-21T05:36:34.102Z,112.72
2023-03-21T05:39:02.031Z,116.22
2023-03-21T05:41:30.644Z,118.22
2023-03-21T05:43:59.120Z,113.40
2023-03-21T05:46:26.671Z,112.45
2023-03-21T05:48:53.790Z,113.63
2023-03-21T05:51:21.799Z,109.72
2023-03-21T05:53:48.872Z,110.15
2023-03-21T05:56:16.767Z,104.50
2023-03-21T05:58:51.848Z,100.22
2023-03-21T06:01:19.937Z,83.80
2023-03-21T06:03:55.732Z,83.07
2023-03-21T06:06:24.374Z,82.78
2023-03-21T06:08:54.315Z,73.18
2023-03-21T06:11:27.078Z,71.10
2023-03-21T06:14:16.980Z,66.90
2023-03-21T06:16:45.425Z,69.97
2023-03-21T06:19:12.992Z,61.03
2023-03-21T06:21:56.519Z,74.68
2023-03-21T06:24:23.350Z,62.35
2023-03-21T06:26:50.394Z,58.78
2023-03-21T06:29:17.374Z,69.32
2023-03-21T06:31:48.261Z,59.95
2023-03-21T06:34:16.159Z,59.70
2023-03-21T06:36:44.758Z,56.90
2023-03-21T06:39:13.908Z,64.10
2023-03-21T06:41:41.404Z,63.08
2023-03-21T06:44:08.078Z,57.58
2023-03-21T06:46:43.815Z,58.80
2023-03-21T06:49:12.569Z,51.90
2023-03-21T06:51:40.484Z,62.70
2023-03-21T06:54:15.971Z,50.65
2023-03-21T06:56:51.157Z,51.08
2023-03-21T06:59:24.014Z,53.95
2023-03-21T07:02:10.748Z,61.50
2023-03-21T07:04:43.108Z,54.10
2023-03-21T07:07:16.068Z,57.67
2023-03-21T07:09:43.747Z,83.78
2023-03-21T07:12:11.126Z,69.68
2023-03-21T07:14:56.932Z,57.65
2023-03-21T07:17:24.047Z,58.05
2023-03-21T07:19:50.838Z,55.38
2023-03-21T07:22:19.069Z,56.33
2023-03-21T07:24:55.873Z,56.42
2023-03-21T07:27:26.364Z,59.83
2023-03-21T07:29:53.497Z,50.85
2023-03-21T07:32:20.603Z,51.00
2023-03-21T07:34:47.412Z,55.22
2023-03-21T07:37:14.219Z,47.90
2023-03-21T07:39:40.896Z,50.70
2023-03-21T07:42:11.093Z,52.15
2023-03-21T07:44:39.371Z,50.15
2023-03-21T07:47:06.435Z,49.17
2023-03-21T07:49:33.781Z,53.03
2023-03-21T07:52:04.291Z,48.35
2023-03-21T07:54:32.379Z,48.33
2023-03-21T07:56:59.890Z,47.45
2023-03-21T07:59:26.853Z,44.40
2023-03-21T08:01:54.188Z,46.05
2023-03-21T08:04:22.652Z,53.33
2023-03-21T08:06:50.432Z,47.20
2023-03-21T08:09:17.162Z,49.90
2023-03-21T08:11:43.882Z,43.50
2023-03-21T08:14:10.769Z,49.63
2023-03-21T08:16:37.571Z,49.08
2023-03-21T08:19:04.378Z,44.65
2023-03-21T08:21:31.108Z,42.17
2023-03-21T08:23:57.788Z,57.53
2023-03-21T08:26:26.679Z,54.42
2023-03-21T08:28:53.651Z,58.88
2023-03-21T08:31:21.808Z,53.92
2023-03-21T08:33:53.748Z,60.85
2023-03-21T08:36:21.528Z,63.17
2023-03-21T08:38:49.100Z,67.05
2023-03-21T08:41:16.301Z,55.78
2023-03-21T08:43:43.106Z,53.67
2023-03-21T08:46:10.102Z,50.53
2023-03-21T08:48:38.842Z,50.10
2023-03-21T08:51:06.692Z,70.75
2023-03-21T08:53:34.196Z,58.08
2023-03-21T08:56:01.064Z,52.35
2023-03-21T08:58:28.354Z,64.22
2023-03-21T09:00:56.749Z,56.60
2023-03-21T09:03:23.767Z,62.03
2023-03-21T09:05:54.054Z,53.25
2023-03-21T09:08:24.143Z,61.70
2023-03-21T09:10:54.909Z,60.42
2023-03-21T09:13:22.053Z,56.45
2023-03-21T09:15:49.190Z,55.58
2023-03-21T09:18:18.272Z,61.85
2023-03-21T09:20:46.763Z,54.00
2023-03-21T09:23:14.904Z,60.78
2023-03-21T09:25:46.116Z,57.92
2023-03-21T09:28:14.405Z,55.08
2023-03-21T09:30:41.692Z,65.80
2023-03-21T09:33:09.745Z,61.28
2023-03-21T09:35:37.428Z,88.22
2023-03-21T09:38:05.658Z,91.38
2023-03-21T09:40:34.187Z,64.78
2023-03-21T09:43:16.310Z,58.58
2023-03-21T09:46:03.318Z,62.95
2023-03-21T09:48:39.537Z,63.22
2023-03-21T09:51:11.698Z,60.05
2023-03-21T09:53:41.505Z,55.35
2023-03-21T09:56:10.764Z,61.70
2023-03-21T09:58:42.153Z,58.25
2023-03-21T10:01:10.483Z,61.35
2023-03-21T10:03:37.810Z,63.38
2023-03-21T10:06:08.486Z,59.35
2023-03-21T10:08:37.373Z,62.60
2023-03-21T10:11:07.728Z,89.20
2023-03-21T10:13:37.873Z,66.15
2023-03-21T10:16:14.247Z,67.95
2023-03-21T10:18:42.083Z,72.35
2023-03-21T10:21:37.314Z,66.07
2023-03-21T10:24:04.070Z,71.28
2023-03-21T10:26:31.488Z,60.67
2023-03-21T10:28:59.193Z,65.35
2023-03-21T10:31:28.722Z,57.83
2023-03-21T10:33:56.679Z,66.43
2023-03-21T10:36:26.017Z,54.38
2023-03-21T10:38:55.764Z,61.13
2023-03-21T10:41:23.218Z,57.15
2023-03-21T10:44:05.355Z,60.25
2023-03-21T10:46:35.918Z,63.05
2023-03-21T10:49:03.818Z,68.25
2023-03-21T10:51:31.835Z,65.90
2023-03-21T10:53:59.969Z,69.13
2023-03-21T10:56:27.870Z,69.40
2023-03-21T10:58:56.211Z,75.10
2023-03-21T11:01:40.516Z,68.55
2023-03-21T11:04:14.351Z,75.85
2023-03-21T11:06:42.074Z,67.05
2023-03-21T11:09:09.649Z,73.88
2023-03-21T11:11:40.914Z,74.13
2023-03-21T11:14:09.401Z,66.30
2023-03-21T11:16:36.158Z,66.75
2023-03-21T11:19:11.683Z,77.97
2023-03-21T11:21:39.144Z,70.97
2023-03-21T11:24:07.600Z,71.05
2023-03-21T11:26:36.656Z,66.00
2023-03-21T11:29:20.894Z,72.40
2023-03-21T11:31:47.655Z,66.63
2023-03-21T11:34:34.304Z,65.07
2023-03-21T11:37:02.734Z,62.38
2023-03-21T11:39:39.802Z,65.93
2023-03-21T11:42:25.270Z,66.93
2023-03-21T11:44:57.730Z,62.60
2023-03-21T11:47:24.437Z,69.63
2023-03-21T11:49:55.654Z,72.00
2023-03-21T11:52:35.908Z,65.78
2023-03-21T11:55:22.887Z,58.60
2023-03-21T11:58:13.483Z,59.85
2023-03-21T12:01:03.785Z,79.03
2023-03-21T12:03:47.555Z,64.65
2023-03-21T12:06:28.319Z,64.45
2023-03-21T12:08:58.106Z,71.15
2023-03-21T12:11:34.205Z,71.32
2023-03-21T12:14:17.676Z,63.53
2023-03-21T12:16:59.001Z,63.63
2023-03-21T12:19:44.296Z,62.17
2023-03-21T12:22:14.365Z,56.47
2023-03-21T12:24:57.585Z,61.72
2023-03-21T12:27:33.535Z,58.23
2023-03-21T12:30:00.871Z,57.05
2023-03-21T12:32:35.560Z,72.20
2023-03-21T12:35:21.284Z,52.97
2023-03-21T12:38:00.270Z,49.05
2023-03-21T12:40:47.242Z,59.08
2023-03-21T12:43:13.905Z,49.72
2023-03-21T12:45:47.291Z,51.92
2023-03-21T12:48:32.984Z,54.22
2023-03-21T12:51:01.704Z,51.42
2023-03-21T12:53:37.854Z,53.22
2023-03-21T12:56:10.040Z,58.15
2023-03-21T12:58:58.010Z,47.65
2023-03-21T13:01:25.725Z,53.90
2023-03-21T13:03:59.372Z,54.45
2023-03-21T13:06:26.731Z,51.67
2023-03-21T13:09:07.035Z,52.88
2023-03-21T13:11:34.012Z,60.00
2023-03-21T13:14:06.187Z,48.53
2023-03-21T13:16:51.377Z,57.58
2023-03-21T13:19:36.897Z,53.47
2023-03-21T13:22:03.844Z,52.03
2023-03-21T13:24:33.804Z,50.20
2023-03-21T13:27:09.178Z,51.42
2023-03-21T13:29:44.878Z,48.22
2023-03-21T13:32:23.883Z,50.83
2023-03-21T13:34:55.008Z,49.35
2023-03-21T13:37:22.891Z,51.00
2023-03-21T13:39:49.931Z,48.63
2023-03-21T13:42:23.879Z,46.03
2023-03-21T13:44:55.355Z,50.60
2023-03-21T13:47:40.877Z,54.42
2023-03-21T13:50:23.134Z,55.80
2023-03-21T13:53:02.828Z,51.03
2023-03-21T13:55:31.201Z,53.90
2023-03-21T13:57:58.056Z,49.92
2023-03-21T14:00:32.234Z,46.85
2023-03-21T14:03:08.312Z,48.95
2023-03-21T14:05:37.587Z,45.40
2023-03-21T14:08:24.679Z,51.78
2023-03-21T14:10:57.705Z,49.67
2023-03-21T14:13:26.191Z,49.50
2023-03-21T14:15:56.729Z,48.00
2023-03-21T14:18:34.960Z,59.17
2023-03-21T14:21:23.355Z,51.40
2023-03-21T14:23:57.554Z,46.40
2023-03-21T14:28:52.831Z,50.20
2023-03-21T14:31:19.829Z,46.08
2023-03-21T14:33:56.116Z,49.20
2023-03-21T14:36:27.842Z,46.17
2023-03-21T14:39:04.482Z,47.42
2023-03-21T14:41:32.023Z,46.60
2023-03-21T14:44:15.921Z,48.72
2023-03-21T14:46:43.690Z,49.55
2023-03-21T14:49:22.118Z,46.15
2023-03-21T14:51:50.709Z,48.30
2023-03-21T14:54:18.671Z,48.13
2023-03-21T14:56:50.768Z,67.63
2023-03-21T14:59:19.151Z,51.15
2023-03-21T15:01:46.748Z,42.25
2023-03-21T15:04:14.771Z,49.45
2023-03-21T15:06:55.514Z,48.60
2023-03-21T15:09:23.417Z,50.05
2023-03-21T15:11:51.947Z,53.03
2023-03-21T15:14:20.910Z,61.10
2023-03-21T15:16:48.052Z,55.08
2023-03-21T15:19:16.480Z,45.83
2023-03-21T15:21:48.982Z,45.30
2023-03-21T15:24:19.556Z,47.65
2023-03-21T15:26:48.310Z,47.55
2023-03-21T15:29:16.769Z,47.22
2023-03-21T15:31:43.990Z,53.92
2023-03-21T15:34:28.465Z,51.40
2023-03-21T15:36:57.354Z,48.63
2023-03-21T15:39:27.120Z,51.22
2023-03-21T15:42:02.149Z,45.67
2023-03-21T15:44:29.373Z,47.33
2023-03-21T15:46:56.294Z,59.78
2023-03-21T15:49:31.214Z,50.72
2023-03-21T15:51:57.975Z,49.15
2023-03-21T15:54:37.078Z,50.03
2023-03-21T15:57:09.730Z,58.00
2023-03-21T15:59:38.809Z,54.97
2023-03-21T16:02:15.076Z,52.92
2023-03-21T16:05:00.539Z,52.10
2023-03-21T16:07:27.441Z,58.53
2023-03-21T16:10:01.430Z,62.80
2023-03-21T16:12:28.384Z,52.92
2023-03-21T16:14:55.692Z,57.15
2023-03-21T16:17:26.506Z,48.78
2023-03-21T16:19:53.936Z,69.38
2023-03-21T16:22:21.672Z,58.08
2023-03-21T16:24:48.712Z,63.28
2023-03-21T16:27:17.524Z,60.05
2023-03-21T16:29:44.396Z,52.75
2023-03-21T16:32:15.662Z,48.30
2023-03-21T16:34:42.842Z,59.95
2023-03-21T16:37:11.865Z,55.08
2023-03-21T16:39:39.276Z,58.08
2023-03-21T16:42:06.654Z,55.60
2023-03-21T16:44:33.921Z,50.25
2023-03-21T16:47:02.311Z,53.08
2023-03-21T16:49:29.237Z,54.35
2023-03-21T16:51:56.666Z,49.72
2023-03-21T16:54:23.543Z,60.67
2023-03-21T16:56:51.920Z,70.45
2023-03-21T16:59:18.737Z,63.05
2023-03-21T17:01:46.598Z,52.75
2023-03-21T17:04:14.798Z,57.15
2023-03-21T17:06:46.199Z,60.65
2023-03-21T17:09:14.077Z,64.82
2023-03-21T17:11:41.678Z,59.45
2023-03-21T17:14:09.287Z,51.50
2023-03-21T17:16:36.607Z,61.70
2023-03-21T17:19:04.468Z,65.97
2023-03-21T17:21:31.212Z,71.30
2023-03-21T17:23:58.387Z,65.13
2023-03-21T17:26:28.166Z,75.15
2023-03-21T17:28:56.813Z,70.78
2023-03-21T17:31:25.138Z,63.38
2023-03-21T17:33:51.856Z,60.88
2023-03-21T17:36:18.545Z,60.10
2023-03-21T17:38:48.538Z,62.67
2023-03-21T17:41:16.525Z,68.57
2023-03-21T17:43:43.638Z,64.85
2023-03-21T17:46:12.024Z,64.85
2023-03-21T17:48:38.637Z,59.75
2023-03-21T17:51:05.537Z,67.93
2023-03-21T17:53:32.409Z,64.85
2023-03-21T17:55:59.217Z,77.18
2023-03-21T17:58:26.259Z,70.85
2023-03-21T18:01:02.100Z,60.42
2023-03-21T18:03:28.754Z,63.80
2023-03-21T18:05:55.543Z,58.25
2023-03-21T18:08:22.203Z,63.67
2023-03-21T18:10:48.917Z,65.30
2023-03-21T18:13:15.796Z,66.88
2023-03-21T18:15:44.934Z,67.50
2023-03-21T18:18:12.038Z,65.85
2023-03-21T18:20:51.986Z,67.53
2023-03-21T18:23:19.726Z,71.78
2023-03-21T18:25:47.077Z,69.47
2023-03-21T18:28:17.632Z,69.50
2023-03-21T18:33:36.071Z,72.05
2023-03-21T18:36:07.483Z,71.28
2023-03-21T18:38:35.629Z,73.80
2023-03-21T18:41:02.427Z,89.35
2023-03-21T18:46:16.453Z,113.35
2023-03-21T18:48:43.446Z,94.45
2023-03-21T18:51:10.216Z,84.07
2023-03-21T18:53:38.020Z,93.45
2023-03-21T18:56:09.873Z,92.80
2023-03-21T18:58:37.526Z,81.82
2023-03-21T19:01:05.380Z,101.22
2023-03-21T19:03:36.939Z,84.18
2023-03-21T19:06:05.007Z,89.30
2023-03-21T19:08:33.982Z,92.88
2023-03-21T19:11:05.593Z,96.57
2023-03-21T19:13:33.357Z,88.20
2023-03-21T19:16:02.360Z,83.00
2023-03-21T19:18:50.087Z,89.22
2023-03-21T19:21:17.137Z,95.55
2023-03-21T19:24:20.851Z,94.38
2023-03-21T19:26:31.223Z,116.63
2023-03-21T19:28:58.065Z,110.60
2023-03-21T19:31:24.796Z,111.03
2023-03-21T19:33:51.875Z,116.95
2023-03-21T19:36:22.768Z,110.85
2023-03-21T19:38:50.540Z,98.05
2023-03-21T19:41:17.953Z,117.90
2023-03-21T19:43:53.667Z,90.35
2023-03-21T19:46:24.766Z,92.15
2023-03-21T19:48:56.136Z,87.47
2023-03-21T19:51:28.831Z,91.93
2023-03-21T19:56:27.100Z,76.97
2023-03-21T19:58:57.804Z,69.15
2023-03-21T20:01:25.528Z,93.82
2023-03-21T20:03:53.038Z,67.95
2023-03-21T20:06:23.059Z,85.18
2023-03-21T20:09:37.571Z,74.15
2023-03-21T20:11:40.325Z,68.88
2023-03-21T20:14:08.759Z,82.97
2023-03-21T20:16:37.178Z,86.43
2023-03-21T20:19:06.161Z,92.10
2023-03-21T20:21:45.281Z,89.30
2023-03-21T20:24:17.231Z,77.90
2023-03-21T20:26:49.300Z,79.95
2023-03-21T20:30:07.091Z,88.38
2023-03-21T20:32:04.643Z,88.25
2023-03-21T20:34:33.556Z,72.75
2023-03-21T20:37:01.216Z,81.70
2023-03-21T20:39:30.024Z,92.72
2023-03-21T20:41:59.392Z,101.70
2023-03-21T20:44:57.353Z,105.10
2023-03-21T20:47:14.483Z,91.38
2023-03-21T20:49:41.256Z,84.90
2023-03-21T20:52:52.112Z,95.40
2023-03-21T20:54:58.758Z,89.93
2023-03-21T20:57:27.443Z,86.45
2023-03-21T20:59:55.025Z,95.60
2023-03-21T21:02:22.823Z,96.80
2023-03-21T21:05:21.570Z,95.60
2023-03-21T21:07:36.964Z,114.53
2023-03-21T21:10:03.985Z,90.05
2023-03-21T21:12:31.108Z,94.55
2023-03-21T21:14:57.910Z,109.55
2023-03-21T21:17:46.668Z,95.53
2023-03-21T21:20:17.865Z,94.93
2023-03-21T21:22:56.916Z,87.53
2023-03-21T21:25:25.536Z,93.00
2023-03-21T21:27:53.843Z,91.00
2023-03-21T21:30:20.885Z,91.03
2023-03-21T21:32:47.673Z,85.93
2023-03-21T21:35:14.400Z,93.88
2023-03-21T21:37:42.051Z,87.00
2023-03-21T21:40:13.646Z,83.63
2023-03-21T21:42:41.627Z,90.47
2023-03-21T21:45:09.556Z,90.80
2023-03-21T21:47:36.397Z,96.22
2023-03-21T21:50:03.657Z,87.78
2023-03-21T21:52:30.474Z,98.45
2023-03-21T21:54:57.416Z,88.97
2023-03-21T21:57:24.658Z,96.32
2023-03-21T21:59:54.321Z,86.18
2023-03-21T22:02:25.955Z,85.80
2023-03-21T22:04:59.872Z,103.53
2023-03-21T22:07:27.448Z,92.57
2023-03-21T22:09:54.591Z,98.90
2023-03-21T22:12:21.447Z,103.28
2023-03-21T22:14:48.177Z,92.35
2023-03-21T22:17:14.912Z,90.20
2023-03-21T22:19:42.023Z,88.70
2023-03-21T22:22:09.303Z,103.05
2023-03-21T22:24:37.435Z,101.15
2023-03-21T22:27:04.727Z,97.82
2023-03-21T22:29:31.921Z,96.53
2023-03-21T22:31:58.744Z,102.85
2023-03-21T22:34:26.568Z,109.70
2023-03-21T22:36:53.425Z,105.57
2023-03-21T22:39:23.251Z,91.63
2023-03-21T22:41:49.920Z,91.68
2023-03-21T22:44:16.630Z,96.70
2023-03-21T22:46:43.313Z,96.18
2023-03-21T22:49:09.997Z,95.20
2023-03-21T22:51:36.840Z,90.22
2023-03-21T22:54:04.172Z,90.57
2023-03-21T22:56:31.163Z,90.88
2023-03-21T22:59:00.424Z,92.97
2023-03-21T23:01:27.722Z,97.13
2023-03-21T23:03:54.803Z,97.97
2023-03-21T23:06:22.298Z,89.55
2023-03-21T23:08:48.989Z,92.57
2023-03-21T23:11:15.739Z,88.25
2023-03-21T23:13:42.472Z,96.20
2023-03-21T23:16:09.454Z,96.20
2023-03-21T23:18:37.157Z,103.95
2023-03-21T23:21:06.101Z,87.50
2023-03-21T23:23:36.649Z,86.90
2023-03-21T23:26:03.466Z,81.53
2023-03-21T23:28:30.356Z,88.60
2023-03-21T23:30:57.302Z,83.75
2023-03-21T23:33:24.030Z,93.65
2023-03-21T23:35:50.748Z,94.07
2023-03-21T23:38:17.424Z,94.25
2023-03-21T23:40:44.115Z,92.13
2023-03-21T23:43:10.932Z,90.05
2023-03-21T23:45:37.686Z,95.28
2023-03-21T23:48:04.558Z,95.63
2023-03-21T23:50:31.286Z,94.40
2023-03-21T23:52:58.281Z,103.50
2023-03-21T23:55:25.270Z,104.40
2023-03-21T23:57:58.956Z,97.15
